Terminal Aerodrome Forecast
Issued by NWS Cleveland, OH

Home | Current Version | Previous Version | Graphics & Text | Print | Product List | Glossary Off
Versions: 1 2 3 4 5 6 7 8 9 10 11 12 13 14 15 16

239
FTUS41 KCLE 292327
TAFMFD
TAF
KMFD 292327Z 3000/3024 19010KT P6SM VCTS SCT050CB BKN100
      TEMPO 3000/3001 25010G20KT 3SM -TSRA BR BKN035CB OVC060
     FM300200 25005KT P6SM SCT100
      TEMPO 3009/3011 4SM BR
     FM301400 29007KT P6SM BKN025
     FM301600 29007KT P6SM BKN035=

USA.gov is the U.S. government's official web portal to all federal, state and local government web resources and services.